createdAt,value
2023-06-10T00:01:17.702Z,10.40
2023-06-10T00:03:44.920Z,10.47
2023-06-10T00:06:11.939Z,10.97
2023-06-10T00:08:38.889Z,10.83
2023-06-10T00:11:06.007Z,11.23
2023-06-10T00:13:33.151Z,10.87
2023-06-10T00:16:00.045Z,10.80
2023-06-10T00:18:28.083Z,11.00
2023-06-10T00:20:56.337Z,12.50
2023-06-10T00:23:23.917Z,12.60
2023-06-10T00:25:50.885Z,12.10
2023-06-10T00:28:17.714Z,13.57
2023-06-10T00:30:44.594Z,13.60
2023-06-10T00:33:11.658Z,14.57
2023-06-10T00:35:38.583Z,13.93
2023-06-10T00:38:05.476Z,14.50
2023-06-10T00:40:32.358Z,15.13
2023-06-10T00:42:59.286Z,14.60
2023-06-10T00:45:26.223Z,14.93
2023-06-10T00:47:53.181Z,14.37
2023-06-10T00:50:20.147Z,15.20
2023-06-10T00:52:49.726Z,15.53
2023-06-10T00:55:17.780Z,15.90
2023-06-10T00:57:45.967Z,15.53
2023-06-10T01:00:13.632Z,15.73
2023-06-10T01:02:40.612Z,15.43
2023-06-10T01:05:07.999Z,16.83
2023-06-10T01:07:54.526Z,16.93
2023-06-10T01:10:26.195Z,16.57
2023-06-10T01:13:00.802Z,16.63
2023-06-10T01:15:28.032Z,17.07
2023-06-10T01:17:59.590Z,17.70
2023-06-10T01:20:28.743Z,17.50
2023-06-10T01:22:59.254Z,17.17
2023-06-10T01:25:30.397Z,19.00
2023-06-10T01:28:06.497Z,18.90
2023-06-10T01:30:38.840Z,18.47
2023-06-10T01:33:09.061Z,17.70
2023-06-10T01:35:38.621Z,17.40
2023-06-10T01:38:05.693Z,17.77
2023-06-10T01:40:33.662Z,17.47
2023-06-10T01:43:00.560Z,18.00
2023-06-10T01:45:27.464Z,17.47
2023-06-10T01:47:54.372Z,17.83
2023-06-10T01:50:21.357Z,16.87
2023-06-10T01:52:48.211Z,17.57
2023-06-10T01:55:15.103Z,16.93
2023-06-10T01:57:42.087Z,17.97
2023-06-10T02:00:09.691Z,17.50
2023-06-10T02:02:42.139Z,18.07
2023-06-10T02:05:09.468Z,16.07
2023-06-10T02:07:36.889Z,17.63
2023-06-10T02:10:04.096Z,17.23
2023-06-10T02:12:31.036Z,18.33
2023-06-10T02:14:57.823Z,17.57
2023-06-10T02:17:24.678Z,17.33
2023-06-10T02:19:54.119Z,17.53
2023-06-10T02:22:22.658Z,17.30
2023-06-10T02:24:49.967Z,18.27
2023-06-10T02:27:17.702Z,16.27
2023-06-10T02:29:44.640Z,16.07
2023-06-10T02:32:12.301Z,17.40
2023-06-10T02:34:43.972Z,17.57
2023-06-10T02:37:11.572Z,17.60
2023-06-10T02:39:38.558Z,17.23
2023-06-10T02:42:09.508Z,16.53
2023-06-10T02:44:36.397Z,15.93
2023-06-10T02:47:03.986Z,16.90
2023-06-10T02:49:31.541Z,16.33
2023-06-10T02:52:00.229Z,16.13
2023-06-10T02:54:27.289Z,16.17
2023-06-10T02:56:57.185Z,16.50
2023-06-10T02:59:28.229Z,16.13
2023-06-10T03:01:55.467Z,15.63
2023-06-10T03:04:24.986Z,15.40
2023-06-10T03:07:01.684Z,15.33
2023-06-10T03:09:32.401Z,15.37
2023-06-10T03:12:02.040Z,14.63
2023-06-10T03:14:32.961Z,14.67
2023-06-10T03:17:00.820Z,15.03
2023-06-10T03:19:28.177Z,15.37
2023-06-10T03:22:08.041Z,15.30
2023-06-10T03:24:37.210Z,13.80
2023-06-10T03:27:06.244Z,15.10
2023-06-10T03:29:33.482Z,15.73
2023-06-10T03:32:01.316Z,15.23
2023-06-10T03:34:29.382Z,15.60
2023-06-10T03:36:56.317Z,15.20
2023-06-10T03:39:24.514Z,15.30
2023-06-10T03:41:51.687Z,15.13
2023-06-10T03:44:18.494Z,15.50
2023-06-10T03:46:45.772Z,15.77
2023-06-10T03:49:12.793Z,15.30
2023-06-10T03:51:39.863Z,15.23
2023-06-10T03:54:07.052Z,14.23
2023-06-10T03:56:34.028Z,15.13
2023-06-10T03:59:01.523Z,15.20
2023-06-10T04:01:28.899Z,15.27
2023-06-10T04:03:56.494Z,15.07
2023-06-10T04:06:24.048Z,14.97
2023-06-10T04:08:50.929Z,14.33
2023-06-10T04:11:18.163Z,14.27
2023-06-10T04:13:46.554Z,13.73
2023-06-10T04:16:13.838Z,13.93
2023-06-10T04:18:41.190Z,13.97
2023-06-10T04:21:08.604Z,12.20
2023-06-10T04:23:36.610Z,12.43
2023-06-10T04:26:03.691Z,12.53
2023-06-10T04:28:31.424Z,11.80
2023-06-10T04:30:59.439Z,12.00
2023-06-10T04:33:26.873Z,11.47
2023-06-10T04:35:53.733Z,12.60
2023-06-10T04:38:23.427Z,10.63
2023-06-10T04:40:50.397Z,10.80
2023-06-10T04:43:19.055Z,11.10
2023-06-10T04:45:47.008Z,11.23
2023-06-10T04:48:15.273Z,12.20
2023-06-10T04:50:42.120Z,10.23
2023-06-10T04:53:09.735Z,10.20
2023-06-10T04:55:38.693Z,11.33
2023-06-10T04:58:05.801Z,10.90
2023-06-10T05:00:32.587Z,11.67
2023-06-10T05:02:59.615Z,10.63
2023-06-10T05:05:26.450Z,11.73
2023-06-10T05:07:53.373Z,10.77
2023-06-10T05:10:20.229Z,10.93
2023-06-10T05:12:47.193Z,10.37
2023-06-10T05:15:14.157Z,9.87
2023-06-10T05:17:41.044Z,10.23
2023-06-10T05:20:08.194Z,10.40
2023-06-10T05:22:35.736Z,9.63
2023-06-10T05:25:02.776Z,9.40
2023-06-10T05:27:29.599Z,9.53
2023-06-10T05:29:56.549Z,9.17
2023-06-10T05:32:23.421Z,8.70
2023-06-10T05:34:50.382Z,9.37
2023-06-10T05:37:17.181Z,9.40
2023-06-10T05:39:44.069Z,10.13
2023-06-10T05:42:11.818Z,9.17
2023-06-10T05:44:38.840Z,9.53
2023-06-10T05:47:05.915Z,9.00
2023-06-10T05:49:32.921Z,9.37
2023-06-10T05:52:00.389Z,9.37
2023-06-10T05:54:30.080Z,8.50
2023-06-10T05:56:57.300Z,9.80
2023-06-10T05:59:24.184Z,9.43
2023-06-10T06:01:53.723Z,9.27
2023-06-10T06:04:20.645Z,9.17
2023-06-10T06:06:47.584Z,9.53
2023-06-10T06:09:14.394Z,9.53
2023-06-10T06:11:41.957Z,9.47
2023-06-10T06:14:08.783Z,9.27
2023-06-10T06:16:35.751Z,9.77
2023-06-10T06:19:02.548Z,9.77
2023-06-10T06:21:29.489Z,10.13
2023-06-10T06:23:56.452Z,9.93
2023-06-10T06:26:23.336Z,10.20
2023-06-10T06:28:50.238Z,9.20
2023-06-10T06:31:17.347Z,9.47
2023-06-10T06:33:44.436Z,9.07
2023-06-10T06:36:11.350Z,8.00
2023-06-10T06:38:38.209Z,8.13
2023-06-10T06:41:07.662Z,8.60
2023-06-10T06:43:35.204Z,7.70
2023-06-10T06:46:15.891Z,7.20
2023-06-10T06:48:45.369Z,7.57
2023-06-10T06:51:12.510Z,6.87
2023-06-10T06:53:45.448Z,6.70
2023-06-10T06:56:15.166Z,6.70
2023-06-10T06:58:42.336Z,6.67
2023-06-10T07:01:09.720Z,6.20
2023-06-10T07:03:36.902Z,7.10
2023-06-10T07:06:03.759Z,7.17
2023-06-10T07:08:30.634Z,7.40
2023-06-10T07:10:57.485Z,6.90
2023-06-10T07:13:24.405Z,7.07
2023-06-10T07:15:51.243Z,6.47
2023-06-10T07:18:20.883Z,8.30
2023-06-10T07:20:47.803Z,6.90
2023-06-10T07:23:14.696Z,7.80
2023-06-10T07:25:42.653Z,7.10
2023-06-10T07:28:09.438Z,7.43
2023-06-10T07:30:36.347Z,7.20
2023-06-10T07:33:03.841Z,7.07
2023-06-10T07:35:30.882Z,7.10
2023-06-10T07:37:57.817Z,6.93
2023-06-10T07:40:25.205Z,6.27
2023-06-10T07:42:52.125Z,6.23
2023-06-10T07:45:18.940Z,6.57
2023-06-10T07:47:46.275Z,7.60
2023-06-10T07:50:13.079Z,6.63
2023-06-10T07:52:40.055Z,6.60
2023-06-10T07:55:07.601Z,6.73
2023-06-10T07:57:37.665Z,7.37
2023-06-10T08:00:05.632Z,7.30
2023-06-10T08:02:39.800Z,7.13
2023-06-10T08:05:07.308Z,8.23
2023-06-10T08:07:34.309Z,7.87
2023-06-10T08:10:02.082Z,6.80
2023-06-10T08:12:29.004Z,7.47
2023-06-10T08:14:56.290Z,7.47
2023-06-10T08:17:23.249Z,8.40
2023-06-10T08:19:50.086Z,8.43
2023-06-10T08:22:17.206Z,7.90
2023-06-10T08:24:45.245Z,7.47
2023-06-10T08:27:13.269Z,8.07
2023-06-10T08:29:40.347Z,7.57
2023-06-10T08:32:07.875Z,7.80
2023-06-10T08:34:35.741Z,8.87
2023-06-10T08:37:02.963Z,8.07
2023-06-10T08:39:33.236Z,8.77
2023-06-10T08:42:03.154Z,8.77
2023-06-10T08:44:30.882Z,8.87
2023-06-10T08:47:00.185Z,8.60
2023-06-10T08:49:27.647Z,8.67
2023-06-10T08:52:00.051Z,9.23
2023-06-10T08:54:29.659Z,9.10
2023-06-10T08:56:58.011Z,10.10
2023-06-10T08:59:26.274Z,9.87
2023-06-10T09:01:53.435Z,8.53
2023-06-10T09:04:21.878Z,9.57
2023-06-10T09:06:50.323Z,8.57
2023-06-10T09:09:17.206Z,8.57
2023-06-10T09:11:44.839Z,9.27
2023-06-10T09:14:13.415Z,8.87
2023-06-10T09:16:40.562Z,9.80
2023-06-10T09:19:09.415Z,8.70
2023-06-10T09:21:37.210Z,8.97
2023-06-10T09:24:05.114Z,9.27
2023-06-10T09:26:32.106Z,9.60
2023-06-10T09:29:09.986Z,9.47
2023-06-10T09:31:37.665Z,8.93
2023-06-10T09:34:08.557Z,8.60
2023-06-10T09:36:37.030Z,23.80
2023-06-10T09:39:04.301Z,44.20
2023-06-10T09:41:37.113Z,62.37
2023-06-10T09:44:10.522Z,30.97
2023-06-10T09:46:37.492Z,19.00
2023-06-10T09:49:04.289Z,21.73
2023-06-10T09:51:31.307Z,38.60
2023-06-10T09:53:59.789Z,24.93
2023-06-10T09:56:36.627Z,103.40
2023-06-10T09:59:04.311Z,118.30
2023-06-10T10:01:31.804Z,22.63
2023-06-10T10:03:59.089Z,63.00
2023-06-10T10:06:26.523Z,11.80
2023-06-10T10:08:53.653Z,10.40
2023-06-10T10:11:23.344Z,9.43
2023-06-10T10:13:51.669Z,9.67
2023-06-10T10:16:22.813Z,8.90
2023-06-10T10:18:55.178Z,33.13
2023-06-10T10:21:27.677Z,28.80
2023-06-10T10:23:56.851Z,15.40
2023-06-10T10:26:27.301Z,33.73
2023-06-10T10:29:16.174Z,8.73
2023-06-10T10:31:45.699Z,8.63
2023-06-10T10:34:21.780Z,9.17
2023-06-10T10:36:49.529Z,9.70
2023-06-10T10:39:16.633Z,9.70
2023-06-10T10:41:43.996Z,8.50
2023-06-10T10:44:11.880Z,8.40
2023-06-10T10:46:45.500Z,8.47
2023-06-10T10:49:15.548Z,8.87
2023-06-10T10:52:02.639Z,7.33
2023-06-10T10:54:30.961Z,8.13
2023-06-10T10:57:16.680Z,9.90
2023-06-10T10:59:47.658Z,10.00
2023-06-10T11:02:33.917Z,8.63
2023-06-10T11:05:01.626Z,18.47
2023-06-10T11:07:30.611Z,30.37
2023-06-10T11:10:02.117Z,30.83
2023-06-10T11:12:47.318Z,19.30
2023-06-10T11:15:14.784Z,17.33
2023-06-10T11:18:00.181Z,11.60
2023-06-10T11:20:45.647Z,10.77
2023-06-10T11:23:26.363Z,8.03
2023-06-10T11:25:53.290Z,7.80
2023-06-10T11:28:20.874Z,12.87
2023-06-10T11:30:47.816Z,10.40
2023-06-10T11:33:16.553Z,6.80
2023-06-10T11:35:43.862Z,9.37
2023-06-10T11:38:11.223Z,6.83
2023-06-10T11:40:38.173Z,8.80
2023-06-10T11:43:05.820Z,10.70
2023-06-10T11:45:32.600Z,7.17
2023-06-10T11:48:00.133Z,6.97
2023-06-10T11:50:34.136Z,6.80
2023-06-10T11:53:01.189Z,8.50
2023-06-10T11:55:47.124Z,8.57
2023-06-10T11:58:15.166Z,7.97
2023-06-10T12:00:52.376Z,7.03
2023-06-10T12:03:19.442Z,7.77
2023-06-10T12:06:04.970Z,8.20
2023-06-10T12:08:34.537Z,7.63
2023-06-10T12:11:03.187Z,6.77
2023-06-10T12:13:30.113Z,8.70
2023-06-10T12:16:07.152Z,8.37
2023-06-10T12:18:34.068Z,6.77
2023-06-10T12:21:01.532Z,6.93
2023-06-10T12:23:28.341Z,7.70
2023-06-10T12:25:55.684Z,7.57
2023-06-10T12:28:23.708Z,6.93
2023-06-10T12:30:51.232Z,8.80
2023-06-10T12:33:18.637Z,7.07
2023-06-10T12:35:49.380Z,6.90
2023-06-10T12:38:23.084Z,8.20
2023-06-10T12:40:49.895Z,7.63
2023-06-10T12:43:26.245Z,7.43
2023-06-10T12:45:53.283Z,6.50
2023-06-10T12:48:20.710Z,6.03
2023-06-10T12:50:52.089Z,6.73
2023-06-10T12:53:19.850Z,6.30
2023-06-10T12:55:47.174Z,6.77
2023-06-10T12:58:14.489Z,7.50
2023-06-10T13:00:42.669Z,7.77
2023-06-10T13:03:10.504Z,7.63
2023-06-10T13:05:41.086Z,6.83
2023-06-10T13:08:08.753Z,6.97
2023-06-10T13:10:36.182Z,6.27
2023-06-10T13:13:03.931Z,7.10
2023-06-10T13:15:30.803Z,7.30
2023-06-10T13:17:57.719Z,7.27
2023-06-10T13:20:24.685Z,7.63
2023-06-10T13:22:51.639Z,7.37
2023-06-10T13:25:18.545Z,7.37
2023-06-10T13:27:45.653Z,8.20
2023-06-10T13:30:12.862Z,8.03
2023-06-10T13:32:39.974Z,9.13
2023-06-10T13:35:08.858Z,11.17
2023-06-10T13:37:36.044Z,11.37
2023-06-10T13:40:03.727Z,10.07
2023-06-10T13:42:30.843Z,10.80
2023-06-10T13:45:00.377Z,11.27
2023-06-10T13:47:27.988Z,10.43
2023-06-10T13:49:54.840Z,10.80
2023-06-10T13:52:21.697Z,11.07
2023-06-10T13:54:48.613Z,11.40
2023-06-10T13:57:15.468Z,10.37
2023-06-10T13:59:42.488Z,11.07
2023-06-10T14:02:09.987Z,10.17
2023-06-10T14:04:36.894Z,8.73
2023-06-10T14:07:03.763Z,8.53
2023-06-10T14:09:31.172Z,8.67
2023-06-10T14:11:58.109Z,8.60
2023-06-10T14:14:25.318Z,7.70
2023-06-10T14:16:52.573Z,7.13
2023-06-10T14:19:19.380Z,7.37
2023-06-10T14:21:46.244Z,7.63
2023-06-10T14:24:13.159Z,7.60
2023-06-10T14:26:40.033Z,9.20
2023-06-10T14:29:06.942Z,9.87
2023-06-10T14:31:34.021Z,7.20
2023-06-10T14:34:00.869Z,7.67
2023-06-10T14:36:27.875Z,7.07
2023-06-10T14:38:55.022Z,7.93
2023-06-10T14:41:23.563Z,7.00
2023-06-10T14:43:50.561Z,8.30
2023-06-10T14:46:17.526Z,7.43
2023-06-10T14:48:44.409Z,7.97
2023-06-10T14:51:11.740Z,7.77
2023-06-10T14:53:38.586Z,7.03
2023-06-10T14:56:05.809Z,7.43
2023-06-10T14:58:32.656Z,6.90
2023-06-10T15:00:59.600Z,6.40
2023-06-10T15:03:26.397Z,7.67
2023-06-10T15:05:53.307Z,8.70
2023-06-10T15:08:20.259Z,7.07
2023-06-10T15:10:47.186Z,7.73
2023-06-10T15:13:14.093Z,7.13
2023-06-10T15:15:41.007Z,7.13
2023-06-10T15:18:08.077Z,8.20
2023-06-10T15:20:35.090Z,7.60
2023-06-10T15:23:02.886Z,7.47
2023-06-10T15:25:31.865Z,7.93
2023-06-10T15:27:59.561Z,7.60
2023-06-10T15:30:26.584Z,8.20
2023-06-10T15:32:53.603Z,7.50
2023-06-10T15:35:20.821Z,7.23
2023-06-10T15:37:47.692Z,6.93
2023-06-10T15:40:14.664Z,6.37
2023-06-10T15:42:41.599Z,6.40
2023-06-10T15:45:08.776Z,7.03
2023-06-10T15:47:35.988Z,6.93
2023-06-10T15:50:03.325Z,7.33
2023-06-10T15:52:30.290Z,7.33
2023-06-10T15:54:57.248Z,7.20
2023-06-10T15:57:26.838Z,7.03
2023-06-10T15:59:54.443Z,6.77
2023-06-10T16:02:21.376Z,7.77
2023-06-10T16:04:48.336Z,6.53
2023-06-10T16:07:15.162Z,7.53
2023-06-10T16:09:42.057Z,6.73
2023-06-10T16:12:09.048Z,7.53
2023-06-10T16:14:36.388Z,7.27
2023-06-10T16:17:03.544Z,6.90
2023-06-10T16:19:30.889Z,7.13
2023-06-10T16:21:57.719Z,7.27
2023-06-10T16:24:24.836Z,8.73
2023-06-10T16:26:51.841Z,6.73
2023-06-10T16:29:18.814Z,7.10
2023-06-10T16:31:45.920Z,7.13
2023-06-10T16:34:12.999Z,7.60
2023-06-10T16:36:39.931Z,7.13
2023-06-10T16:39:06.917Z,7.30
2023-06-10T16:41:33.699Z,7.40
2023-06-10T16:44:03.676Z,14.53
2023-06-10T16:46:31.371Z,8.40
2023-06-10T16:48:58.211Z,6.73
2023-06-10T16:51:25.221Z,7.13
2023-06-10T16:53:52.059Z,7.10
2023-06-10T16:56:18.990Z,7.63
2023-06-10T16:58:45.876Z,8.20
2023-06-10T17:01:12.870Z,7.90
2023-06-10T17:03:39.816Z,6.87
2023-06-10T17:06:06.797Z,6.60
2023-06-10T17:08:33.957Z,7.10
2023-06-10T17:11:01.383Z,6.07
2023-06-10T17:13:28.556Z,6.67
2023-06-10T17:15:57.456Z,6.63
2023-06-10T17:18:24.547Z,4.93
2023-06-10T17:20:51.436Z,5.70
2023-06-10T17:23:18.371Z,5.60
2023-06-10T17:25:45.230Z,6.63
2023-06-10T17:28:12.327Z,15.33
2023-06-10T17:30:39.202Z,6.23
2023-06-10T17:33:06.360Z,5.03
2023-06-10T17:35:33.177Z,6.23
2023-06-10T17:38:00.214Z,6.87
2023-06-10T17:40:27.102Z,17.03
2023-06-10T17:42:54.074Z,11.90
2023-06-10T17:45:21.363Z,5.83
2023-06-10T17:47:48.356Z,9.57
2023-06-10T17:50:18.272Z,5.90
2023-06-10T17:52:46.375Z,5.07
2023-06-10T17:55:13.595Z,9.73
2023-06-10T17:57:40.741Z,7.97
2023-06-10T18:00:08.072Z,7.90
2023-06-10T18:02:35.117Z,6.13
2023-06-10T18:05:02.070Z,5.77
2023-06-10T18:07:28.922Z,5.20
2023-06-10T18:09:55.852Z,6.03
2023-06-10T18:12:22.768Z,6.20
2023-06-10T18:14:49.805Z,9.73
2023-06-10T18:17:16.702Z,9.10
2023-06-10T18:19:43.634Z,8.40
2023-06-10T18:22:10.577Z,7.40
2023-06-10T18:24:37.396Z,7.10
2023-06-10T18:27:04.434Z,6.40
2023-06-10T18:29:31.263Z,7.17
2023-06-10T18:32:00.369Z,7.50
2023-06-10T18:34:29.867Z,7.10
2023-06-10T18:36:57.176Z,6.77
2023-06-10T18:39:24.242Z,8.80
2023-06-10T18:41:51.260Z,13.10
2023-06-10T18:44:18.202Z,10.83
2023-06-10T18:46:45.010Z,9.23
2023-06-10T18:49:11.992Z,7.10
2023-06-10T18:51:38.871Z,6.97
2023-06-10T18:54:05.932Z,6.80
2023-06-10T18:56:32.802Z,6.50
2023-06-10T18:58:59.713Z,7.73
2023-06-10T19:01:26.908Z,6.70
2023-06-10T19:03:53.821Z,7.60
2023-06-10T19:06:20.763Z,6.50
2023-06-10T19:08:47.781Z,6.37
2023-06-10T19:11:14.927Z,6.20
2023-06-10T19:13:42.005Z,6.50
2023-06-10T19:16:08.990Z,6.70
2023-06-10T19:18:36.213Z,7.13
2023-06-10T19:21:06.056Z,5.77
2023-06-10T19:23:34.982Z,5.83
2023-06-10T19:26:01.956Z,6.10
2023-06-10T19:28:28.985Z,6.53
2023-06-10T19:30:55.928Z,5.63
2023-06-10T19:33:23.212Z,6.53
2023-06-10T19:35:50.008Z,7.30
2023-06-10T19:38:16.887Z,8.40
2023-06-10T19:40:43.745Z,8.20
2023-06-10T19:43:10.808Z,7.80
2023-06-10T19:45:37.605Z,7.53
2023-06-10T19:48:04.684Z,6.60
2023-06-10T19:50:31.596Z,7.53
2023-06-10T19:52:58.523Z,6.03
2023-06-10T19:55:25.406Z,6.37
2023-06-10T19:57:56.253Z,6.40
2023-06-10T20:00:23.528Z,6.83
2023-06-10T20:02:50.551Z,6.90
2023-06-10T20:05:17.519Z,7.77
2023-06-10T20:07:44.437Z,8.03
2023-06-10T20:10:13.392Z,6.83
2023-06-10T20:12:40.302Z,7.23
2023-06-10T20:15:07.849Z,7.43
2023-06-10T20:17:35.865Z,6.67
2023-06-10T20:20:03.304Z,6.10
2023-06-10T20:22:30.200Z,7.33
2023-06-10T20:24:57.179Z,7.87
2023-06-10T20:27:24.243Z,7.20
2023-06-10T20:29:51.290Z,8.20
2023-06-10T20:32:18.342Z,7.37
2023-06-10T20:34:46.457Z,7.00
2023-06-10T20:37:13.520Z,6.37
2023-06-10T20:39:40.433Z,6.53
2023-06-10T20:42:07.542Z,7.03
2023-06-10T20:44:34.344Z,6.03
2023-06-10T20:47:01.412Z,6.30
2023-06-10T20:49:28.281Z,6.97
2023-06-10T20:51:55.622Z,7.10
2023-06-10T20:54:22.398Z,6.97
2023-06-10T20:56:49.314Z,7.00
2023-06-10T20:59:16.286Z,7.20
2023-06-10T21:01:43.461Z,7.00
2023-06-10T21:04:11.093Z,7.60
2023-06-10T21:06:38.086Z,7.63
2023-06-10T21:09:05.087Z,7.60
2023-06-10T21:11:32.066Z,7.57
2023-06-10T21:13:59.026Z,7.50
2023-06-10T21:16:26.234Z,6.50
2023-06-10T21:18:53.141Z,7.63
2023-06-10T21:21:20.418Z,6.57
2023-06-10T21:23:47.307Z,7.43
2023-06-10T21:26:14.155Z,6.60
2023-06-10T21:28:41.071Z,7.30
2023-06-10T21:31:07.933Z,6.67
2023-06-10T21:33:35.151Z,7.13
2023-06-10T21:36:02.490Z,7.27
2023-06-10T21:38:29.389Z,7.10
2023-06-10T21:40:56.359Z,7.37
2023-06-10T21:43:23.279Z,6.40
2023-06-10T21:45:50.082Z,7.97
2023-06-10T21:48:16.973Z,6.67
2023-06-10T21:50:43.862Z,6.70
2023-06-10T21:53:10.819Z,7.43
2023-06-10T21:55:37.657Z,8.10
2023-06-10T21:58:04.657Z,8.23
2023-06-10T22:00:31.525Z,7.10
2023-06-10T22:02:58.662Z,6.87
2023-06-10T22:05:25.600Z,6.67
2023-06-10T22:07:52.640Z,6.70
2023-06-10T22:10:19.701Z,6.57
2023-06-10T22:12:46.529Z,6.77
2023-06-10T22:15:13.504Z,6.73
2023-06-10T22:17:40.675Z,7.17
2023-06-10T22:20:08.101Z,7.17
2023-06-10T22:22:35.421Z,7.60
2023-06-10T22:25:02.315Z,7.50
2023-06-10T22:27:29.224Z,7.07
2023-06-10T22:29:56.273Z,7.83
2023-06-10T22:32:23.143Z,7.27
2023-06-10T22:34:50.215Z,7.30
2023-06-10T22:37:17.071Z,7.60
2023-06-10T22:39:43.879Z,7.20
2023-06-10T22:42:10.965Z,7.97
2023-06-10T22:44:37.898Z,7.93
2023-06-10T22:47:04.903Z,8.00
2023-06-10T22:49:31.863Z,9.53
2023-06-10T22:51:58.670Z,9.70
2023-06-10T22:54:27.983Z,8.70
2023-06-10T22:56:55.296Z,8.70
2023-06-10T22:59:22.177Z,8.63
2023-06-10T23:01:49.147Z,9.07
2023-06-10T23:04:16.263Z,8.10
2023-06-10T23:06:43.398Z,9.07
2023-06-10T23:09:11.197Z,8.27
2023-06-10T23:11:38.759Z,9.37
2023-06-10T23:14:05.597Z,9.80
2023-06-10T23:16:32.517Z,9.93
2023-06-10T23:19:00.004Z,9.53
2023-06-10T23:21:30.044Z,9.13
2023-06-10T23:24:00.715Z,9.70
2023-06-10T23:26:28.617Z,9.77
2023-06-10T23:28:55.690Z,10.20
2023-06-10T23:31:22.563Z,9.67
2023-06-10T23:33:50.543Z,10.17
2023-06-10T23:36:17.704Z,9.33
2023-06-10T23:38:44.835Z,9.73
2023-06-10T23:41:11.638Z,10.07
2023-06-10T23:43:38.540Z,9.63
2023-06-10T23:46:05.439Z,10.27
2023-06-10T23:48:32.296Z,10.13
2023-06-10T23:51:01.130Z,9.63
2023-06-10T23:53:28.034Z,10.07
2023-06-10T23:55:54.829Z,10.23
2023-06-10T23:58:22.221Z,10.30
